Terminal Aerodrome Forecast
Issued by NWS

Current Version | Previous Version | Text Only | Print | Product List | Glossary Off
Versions: 1 2 3 4 5 6 7 8 9 10 11 12 13 14 15 16 17 18 19 20 21 22 23 24 25 26 27 28 29 30 31 32 33

000
FTUS42 KJAX 131120
TAFSGJ
TAF
KSGJ 131120Z 1312/1412 21005KT P6SM SCT250
     FM131900 18012KT P6SM VCTS SCT050CB BKN180 BKN250
     FM140000 24008KT P6SM SCT050 SCT100 BKN250=

USA.gov is the U.S. government's official web portal to all federal, state and local government web resources and services.